sensor_id;sensor_type;location;lat;lon;timestamp;P1;durP1;ratioP1;P2;durP2;ratioP2
15110;SDS011;7656;51.954;7.998;2022-12-29T00:01:25;1.40;;;1.30;;
15110;SDS011;7656;51.954;7.998;2022-12-29T00:05:50;1.17;;;1.07;;
15110;SDS011;7656;51.954;7.998;2022-12-29T00:10:15;1.23;;;1.13;;
15110;SDS011;7656;51.954;7.998;2022-12-29T00:14:36;1.13;;;1.13;;
15110;SDS011;7656;51.954;7.998;2022-12-29T00:19:16;0.90;;;0.90;;
15110;SDS011;7656;51.954;7.998;2022-12-29T00:23:55;1.00;;;1.00;;
15110;SDS011;7656;51.954;7.998;2022-12-29T00:28:28;1.20;;;1.10;;
15110;SDS011;7656;51.954;7.998;2022-12-29T00:33:15;0.90;;;0.90;;
15110;SDS011;7656;51.954;7.998;2022-12-29T00:37:59;1.90;;;1.53;;
15110;SDS011;7656;51.954;7.998;2022-12-29T00:42:44;1.43;;;1.00;;
15110;SDS011;7656;51.954;7.998;2022-12-29T00:47:24;1.07;;;0.97;;
15110;SDS011;7656;51.954;7.998;2022-12-29T00:51:45;0.90;;;0.90;;
15110;SDS011;7656;51.954;7.998;2022-12-29T00:56:07;1.23;;;0.73;;
15110;SDS011;7656;51.954;7.998;2022-12-29T01:00:28;1.13;;;1.03;;
15110;SDS011;7656;51.954;7.998;2022-12-29T01:04:50;0.87;;;0.87;;
15110;SDS011;7656;51.954;7.998;2022-12-29T01:09:11;0.80;;;0.80;;
15110;SDS011;7656;51.954;7.998;2022-12-29T01:13:51;0.60;;;0.60;;
15110;SDS011;7656;51.954;7.998;2022-12-29T01:18:12;0.80;;;0.80;;
15110;SDS011;7656;51.954;7.998;2022-12-29T01:22:33;0.83;;;0.83;;
15110;SDS011;7656;51.954;7.998;2022-12-29T01:26:54;0.73;;;0.73;;
15110;SDS011;7656;51.954;7.998;2022-12-29T01:31:15;0.77;;;0.77;;
15110;SDS011;7656;51.954;7.998;2022-12-29T01:35:37;0.80;;;0.80;;
15110;SDS011;7656;51.954;7.998;2022-12-29T01:39:58;0.73;;;0.73;;
15110;SDS011;7656;51.954;7.998;2022-12-29T01:49:15;1.20;;;0.70;;
15110;SDS011;7656;51.954;7.998;2022-12-29T01:53:40;0.40;;;0.40;;
15110;SDS011;7656;51.954;7.998;2022-12-29T01:58:04;0.57;;;0.57;;
15110;SDS011;7656;51.954;7.998;2022-12-29T02:02:26;0.60;;;0.60;;
15110;SDS011;7656;51.954;7.998;2022-12-29T02:06:49;0.60;;;0.60;;
15110;SDS011;7656;51.954;7.998;2022-12-29T02:11:14;0.77;;;0.70;;
15110;SDS011;7656;51.954;7.998;2022-12-29T02:20:37;0.50;;;0.50;;
15110;SDS011;7656;51.954;7.998;2022-12-29T02:40:11;0.47;;;0.47;;
15110;SDS011;7656;51.954;7.998;2022-12-29T02:44:52;0.33;;;0.33;;
15110;SDS011;7656;51.954;7.998;2022-12-29T02:49:40;0.50;;;0.50;;
15110;SDS011;7656;51.954;7.998;2022-12-29T02:54:09;1.60;;;0.50;;
15110;SDS011;7656;51.954;7.998;2022-12-29T02:58:49;0.50;;;0.50;;
15110;SDS011;7656;51.954;7.998;2022-12-29T03:03:14;0.40;;;0.40;;
15110;SDS011;7656;51.954;7.998;2022-12-29T03:13:35;0.60;;;0.60;;
15110;SDS011;7656;51.954;7.998;2022-12-29T03:18:25;0.67;;;0.50;;
15110;SDS011;7656;51.954;7.998;2022-12-29T03:23:11;0.67;;;0.63;;
15110;SDS011;7656;51.954;7.998;2022-12-29T03:27:47;0.43;;;0.43;;
15110;SDS011;7656;51.954;7.998;2022-12-29T03:32:14;0.70;;;0.47;;
15110;SDS011;7656;51.954;7.998;2022-12-29T03:36:39;0.60;;;0.60;;
15110;SDS011;7656;51.954;7.998;2022-12-29T03:41:30;0.93;;;0.50;;
15110;SDS011;7656;51.954;7.998;2022-12-29T03:45:54;0.60;;;0.60;;
15110;SDS011;7656;51.954;7.998;2022-12-29T03:50:16;0.60;;;0.60;;
15110;SDS011;7656;51.954;7.998;2022-12-29T03:54:37;0.70;;;0.60;;
15110;SDS011;7656;51.954;7.998;2022-12-29T03:59:00;0.50;;;0.50;;
15110;SDS011;7656;51.954;7.998;2022-12-29T04:03:33;1.00;;;0.90;;
15110;SDS011;7656;51.954;7.998;2022-12-29T04:07:54;0.60;;;0.60;;
15110;SDS011;7656;51.954;7.998;2022-12-29T04:12:15;0.60;;;0.60;;
15110;SDS011;7656;51.954;7.998;2022-12-29T04:16:36;0.83;;;0.83;;
15110;SDS011;7656;51.954;7.998;2022-12-29T04:21:00;0.43;;;0.43;;
15110;SDS011;7656;51.954;7.998;2022-12-29T04:25:22;0.73;;;0.73;;
15110;SDS011;7656;51.954;7.998;2022-12-29T04:29:43;1.00;;;0.67;;
15110;SDS011;7656;51.954;7.998;2022-12-29T04:34:24;3.17;;;0.80;;
15110;SDS011;7656;51.954;7.998;2022-12-29T04:38:45;1.00;;;0.60;;
15110;SDS011;7656;51.954;7.998;2022-12-29T04:43:07;0.70;;;0.70;;
15110;SDS011;7656;51.954;7.998;2022-12-29T04:47:36;0.60;;;0.60;;
15110;SDS011;7656;51.954;7.998;2022-12-29T04:52:16;1.17;;;0.63;;
15110;SDS011;7656;51.954;7.998;2022-12-29T04:56:39;0.73;;;0.73;;
15110;SDS011;7656;51.954;7.998;2022-12-29T05:01:01;0.60;;;0.60;;
15110;SDS011;7656;51.954;7.998;2022-12-29T05:05:24;0.50;;;0.50;;
15110;SDS011;7656;51.954;7.998;2022-12-29T05:09:45;0.67;;;0.67;;
15110;SDS011;7656;51.954;7.998;2022-12-29T05:14:07;0.60;;;0.60;;
15110;SDS011;7656;51.954;7.998;2022-12-29T05:18:29;1.30;;;0.63;;
15110;SDS011;7656;51.954;7.998;2022-12-29T05:22:51;0.53;;;0.53;;
15110;SDS011;7656;51.954;7.998;2022-12-29T05:27:13;0.93;;;0.63;;
15110;SDS011;7656;51.954;7.998;2022-12-29T05:31:54;0.50;;;0.50;;
15110;SDS011;7656;51.954;7.998;2022-12-29T05:36:15;0.57;;;0.57;;
15110;SDS011;7656;51.954;7.998;2022-12-29T05:40:42;0.40;;;0.40;;
15110;SDS011;7656;51.954;7.998;2022-12-29T05:45:21;0.50;;;0.50;;
15110;SDS011;7656;51.954;7.998;2022-12-29T05:50:11;1.57;;;0.60;;
15110;SDS011;7656;51.954;7.998;2022-12-29T05:54:51;0.60;;;0.60;;
15110;SDS011;7656;51.954;7.998;2022-12-29T05:59:15;1.90;;;0.53;;
15110;SDS011;7656;51.954;7.998;2022-12-29T06:03:36;0.37;;;0.37;;
15110;SDS011;7656;51.954;7.998;2022-12-29T06:07:57;0.80;;;0.70;;
15110;SDS011;7656;51.954;7.998;2022-12-29T06:12:19;0.90;;;0.50;;
15110;SDS011;7656;51.954;7.998;2022-12-29T06:16:43;0.90;;;0.40;;
15110;SDS011;7656;51.954;7.998;2022-12-29T06:21:07;0.93;;;0.40;;
15110;SDS011;7656;51.954;7.998;2022-12-29T06:25:29;0.20;;;0.20;;
15110;SDS011;7656;51.954;7.998;2022-12-29T06:29:52;1.00;;;0.40;;
15110;SDS011;7656;51.954;7.998;2022-12-29T06:34:13;0.40;;;0.40;;
15110;SDS011;7656;51.954;7.998;2022-12-29T06:38:35;1.23;;;0.83;;
15110;SDS011;7656;51.954;7.998;2022-12-29T06:42:56;1.03;;;0.63;;
15110;SDS011;7656;51.954;7.998;2022-12-29T06:47:49;0.67;;;0.67;;
15110;SDS011;7656;51.954;7.998;2022-12-29T06:52:11;0.90;;;0.73;;
15110;SDS011;7656;51.954;7.998;2022-12-29T06:56:32;2.23;;;0.90;;
15110;SDS011;7656;51.954;7.998;2022-12-29T07:00:53;0.97;;;0.90;;
15110;SDS011;7656;51.954;7.998;2022-12-29T07:05:14;1.90;;;1.00;;
15110;SDS011;7656;51.954;7.998;2022-12-29T07:09:35;0.97;;;0.97;;
15110;SDS011;7656;51.954;7.998;2022-12-29T07:13:57;1.67;;;1.00;;
15110;SDS011;7656;51.954;7.998;2022-12-29T07:18:18;4.00;;;1.53;;
15110;SDS011;7656;51.954;7.998;2022-12-29T07:22:39;2.97;;;0.90;;
15110;SDS011;7656;51.954;7.998;2022-12-29T07:27:00;1.33;;;1.23;;
15110;SDS011;7656;51.954;7.998;2022-12-29T07:31:22;8.10;;;1.37;;
15110;SDS011;7656;51.954;7.998;2022-12-29T07:35:43;1.53;;;1.07;;
15110;SDS011;7656;51.954;7.998;2022-12-29T07:40:04;2.70;;;1.13;;
15110;SDS011;7656;51.954;7.998;2022-12-29T07:44:26;2.30;;;0.93;;
15110;SDS011;7656;51.954;7.998;2022-12-29T07:49:06;2.03;;;0.83;;
15110;SDS011;7656;51.954;7.998;2022-12-29T07:53:27;2.23;;;0.87;;
15110;SDS011;7656;51.954;7.998;2022-12-29T07:57:48;2.10;;;0.90;;
15110;SDS011;7656;51.954;7.998;2022-12-29T08:02:10;2.67;;;1.10;;
15110;SDS011;7656;51.954;7.998;2022-12-29T08:06:31;1.70;;;1.03;;
15110;SDS011;7656;51.954;7.998;2022-12-29T08:10:52;1.37;;;0.90;;
15110;SDS011;7656;51.954;7.998;2022-12-29T08:15:13;1.47;;;0.80;;
15110;SDS011;7656;51.954;7.998;2022-12-29T08:19:35;1.53;;;0.70;;
15110;SDS011;7656;51.954;7.998;2022-12-29T08:23:56;1.20;;;0.67;;
15110;SDS011;7656;51.954;7.998;2022-12-29T08:28:19;1.73;;;0.80;;
15110;SDS011;7656;51.954;7.998;2022-12-29T08:32:40;1.57;;;1.10;;
15110;SDS011;7656;51.954;7.998;2022-12-29T08:37:01;1.77;;;1.20;;
15110;SDS011;7656;51.954;7.998;2022-12-29T08:41:22;2.47;;;0.90;;
15110;SDS011;7656;51.954;7.998;2022-12-29T08:45:43;1.43;;;0.80;;
15110;SDS011;7656;51.954;7.998;2022-12-29T08:50:04;1.33;;;1.00;;
15110;SDS011;7656;51.954;7.998;2022-12-29T08:54:26;3.27;;;0.90;;
15110;SDS011;7656;51.954;7.998;2022-12-29T08:58:49;3.77;;;0.90;;
15110;SDS011;7656;51.954;7.998;2022-12-29T09:03:12;2.23;;;1.20;;
15110;SDS011;7656;51.954;7.998;2022-12-29T09:07:33;0.93;;;0.70;;
15110;SDS011;7656;51.954;7.998;2022-12-29T09:11:54;1.70;;;0.87;;
15110;SDS011;7656;51.954;7.998;2022-12-29T09:16:16;1.47;;;0.90;;
15110;SDS011;7656;51.954;7.998;2022-12-29T09:20:38;4.00;;;1.20;;
15110;SDS011;7656;51.954;7.998;2022-12-29T09:24:59;2.70;;;1.13;;
15110;SDS011;7656;51.954;7.998;2022-12-29T09:29:20;3.27;;;1.00;;
15110;SDS011;7656;51.954;7.998;2022-12-29T09:33:41;1.40;;;1.20;;
15110;SDS011;7656;51.954;7.998;2022-12-29T09:38:02;2.87;;;1.07;;
15110;SDS011;7656;51.954;7.998;2022-12-29T09:42:27;0.90;;;0.90;;
15110;SDS011;7656;51.954;7.998;2022-12-29T09:46:57;4.33;;;1.23;;
15110;SDS011;7656;51.954;7.998;2022-12-29T09:51:21;4.30;;;1.10;;
15110;SDS011;7656;51.954;7.998;2022-12-29T09:55:48;4.57;;;1.23;;
15110;SDS011;7656;51.954;7.998;2022-12-29T10:00:17;2.37;;;1.10;;
15110;SDS011;7656;51.954;7.998;2022-12-29T10:04:41;2.43;;;1.07;;
15110;SDS011;7656;51.954;7.998;2022-12-29T10:09:19;2.83;;;1.00;;
15110;SDS011;7656;51.954;7.998;2022-12-29T10:23:45;4.17;;;1.40;;
15110;SDS011;7656;51.954;7.998;2022-12-29T10:28:54;3.50;;;1.00;;
15110;SDS011;7656;51.954;7.998;2022-12-29T10:33:01;2.23;;;2.03;;
15110;SDS011;7656;51.954;7.998;2022-12-29T10:37:34;1.30;;;0.80;;
15110;SDS011;7656;51.954;7.998;2022-12-29T10:42:37;3.03;;;1.10;;
15110;SDS011;7656;51.954;7.998;2022-12-29T10:47:05;5.60;;;1.43;;
15110;SDS011;7656;51.954;7.998;2022-12-29T10:51:34;3.43;;;1.50;;
15110;SDS011;7656;51.954;7.998;2022-12-29T10:55:59;2.10;;;1.70;;
15110;SDS011;7656;51.954;7.998;2022-12-29T11:00:34;5.27;;;1.33;;
15110;SDS011;7656;51.954;7.998;2022-12-29T11:09:47;1.67;;;1.00;;
15110;SDS011;7656;51.954;7.998;2022-12-29T11:14:18;1.97;;;0.90;;
15110;SDS011;7656;51.954;7.998;2022-12-29T11:18:47;2.00;;;1.07;;
15110;SDS011;7656;51.954;7.998;2022-12-29T11:23:21;1.37;;;0.70;;
15110;SDS011;7656;51.954;7.998;2022-12-29T11:27:57;3.37;;;1.10;;
15110;SDS011;7656;51.954;7.998;2022-12-29T11:32:33;4.17;;;1.10;;
15110;SDS011;7656;51.954;7.998;2022-12-29T11:36:58;2.47;;;1.17;;
15110;SDS011;7656;51.954;7.998;2022-12-29T11:41:27;2.63;;;0.97;;
15110;SDS011;7656;51.954;7.998;2022-12-29T11:45:51;2.57;;;1.27;;
15110;SDS011;7656;51.954;7.998;2022-12-29T11:50:20;3.87;;;1.70;;
15110;SDS011;7656;51.954;7.998;2022-12-29T11:54:46;3.60;;;1.20;;
15110;SDS011;7656;51.954;7.998;2022-12-29T12:08:36;1.83;;;1.17;;
15110;SDS011;7656;51.954;7.998;2022-12-29T12:13:05;3.50;;;1.47;;
15110;SDS011;7656;51.954;7.998;2022-12-29T12:17:46;2.67;;;0.97;;
15110;SDS011;7656;51.954;7.998;2022-12-29T12:26:59;3.53;;;1.70;;
15110;SDS011;7656;51.954;7.998;2022-12-29T12:31:56;4.23;;;1.57;;
15110;SDS011;7656;51.954;7.998;2022-12-29T12:41:40;5.80;;;1.93;;
15110;SDS011;7656;51.954;7.998;2022-12-29T13:00:24;4.67;;;1.77;;
15110;SDS011;7656;51.954;7.998;2022-12-29T13:14:05;3.43;;;1.60;;
15110;SDS011;7656;51.954;7.998;2022-12-29T13:18:59;2.10;;;1.00;;
15110;SDS011;7656;51.954;7.998;2022-12-29T13:23:34;2.50;;;1.13;;
15110;SDS011;7656;51.954;7.998;2022-12-29T13:28:32;3.70;;;1.20;;
15110;SDS011;7656;51.954;7.998;2022-12-29T13:38:21;1.67;;;1.17;;
15110;SDS011;7656;51.954;7.998;2022-12-29T13:42:46;6.67;;;1.57;;
15110;SDS011;7656;51.954;7.998;2022-12-29T13:51:59;3.87;;;1.73;;
15110;SDS011;7656;51.954;7.998;2022-12-29T13:56:41;4.10;;;1.03;;
15110;SDS011;7656;51.954;7.998;2022-12-29T14:01:17;3.90;;;1.47;;
15110;SDS011;7656;51.954;7.998;2022-12-29T14:06:04;4.30;;;1.60;;
15110;SDS011;7656;51.954;7.998;2022-12-29T14:10:50;4.27;;;1.50;;
15110;SDS011;7656;51.954;7.998;2022-12-29T14:19:39;3.50;;;1.30;;
15110;SDS011;7656;51.954;7.998;2022-12-29T14:24:39;2.93;;;1.30;;
15110;SDS011;7656;51.954;7.998;2022-12-29T14:29:00;3.83;;;1.83;;
15110;SDS011;7656;51.954;7.998;2022-12-29T14:38:32;3.70;;;1.80;;
15110;SDS011;7656;51.954;7.998;2022-12-29T14:42:54;3.40;;;1.60;;
15110;SDS011;7656;51.954;7.998;2022-12-29T14:52:06;2.70;;;1.43;;
15110;SDS011;7656;51.954;7.998;2022-12-29T14:56:36;4.20;;;1.90;;
15110;SDS011;7656;51.954;7.998;2022-12-29T15:00:59;4.30;;;1.33;;
15110;SDS011;7656;51.954;7.998;2022-12-29T15:05:26;3.13;;;1.97;;
15110;SDS011;7656;51.954;7.998;2022-12-29T15:10:06;2.50;;;1.37;;
15110;SDS011;7656;51.954;7.998;2022-12-29T15:14:35;10.60;;;1.73;;
15110;SDS011;7656;51.954;7.998;2022-12-29T15:18:59;3.23;;;1.10;;
15110;SDS011;7656;51.954;7.998;2022-12-29T15:23:20;1.97;;;1.27;;
15110;SDS011;7656;51.954;7.998;2022-12-29T15:27:42;5.43;;;1.43;;
15110;SDS011;7656;51.954;7.998;2022-12-29T15:32:22;4.77;;;1.30;;
15110;SDS011;7656;51.954;7.998;2022-12-29T15:36:46;2.27;;;1.57;;
15110;SDS011;7656;51.954;7.998;2022-12-29T15:41:16;5.07;;;1.60;;
15110;SDS011;7656;51.954;7.998;2022-12-29T15:45:47;2.73;;;1.40;;
15110;SDS011;7656;51.954;7.998;2022-12-29T15:50:22;6.57;;;1.57;;
15110;SDS011;7656;51.954;7.998;2022-12-29T15:54:49;4.20;;;1.67;;
15110;SDS011;7656;51.954;7.998;2022-12-29T15:59:27;3.13;;;1.23;;
15110;SDS011;7656;51.954;7.998;2022-12-29T16:03:54;2.47;;;1.20;;
15110;SDS011;7656;51.954;7.998;2022-12-29T16:08:22;5.80;;;1.60;;
15110;SDS011;7656;51.954;7.998;2022-12-29T16:12:52;3.97;;;1.53;;
15110;SDS011;7656;51.954;7.998;2022-12-29T16:17:15;5.50;;;1.70;;
15110;SDS011;7656;51.954;7.998;2022-12-29T16:21:41;6.13;;;2.27;;
15110;SDS011;7656;51.954;7.998;2022-12-29T16:26:03;6.47;;;1.90;;
15110;SDS011;7656;51.954;7.998;2022-12-29T16:30:29;3.80;;;1.70;;
15110;SDS011;7656;51.954;7.998;2022-12-29T16:39:37;5.93;;;2.20;;
15110;SDS011;7656;51.954;7.998;2022-12-29T16:44:18;5.70;;;2.47;;
15110;SDS011;7656;51.954;7.998;2022-12-29T16:48:52;1.63;;;1.47;;
15110;SDS011;7656;51.954;7.998;2022-12-29T16:53:17;1.40;;;1.30;;
15110;SDS011;7656;51.954;7.998;2022-12-29T16:57:44;2.97;;;1.37;;
15110;SDS011;7656;51.954;7.998;2022-12-29T17:02:15;2.53;;;1.80;;
15110;SDS011;7656;51.954;7.998;2022-12-29T17:06:40;4.60;;;1.63;;
15110;SDS011;7656;51.954;7.998;2022-12-29T17:11:01;2.63;;;2.23;;
15110;SDS011;7656;51.954;7.998;2022-12-29T17:15:41;4.33;;;1.80;;
15110;SDS011;7656;51.954;7.998;2022-12-29T17:20:08;6.70;;;2.47;;
15110;SDS011;7656;51.954;7.998;2022-12-29T17:24:39;5.07;;;2.33;;
15110;SDS011;7656;51.954;7.998;2022-12-29T17:29:00;5.23;;;2.10;;
15110;SDS011;7656;51.954;7.998;2022-12-29T17:33:21;3.73;;;2.17;;
15110;SDS011;7656;51.954;7.998;2022-12-29T17:37:43;4.03;;;1.80;;
15110;SDS011;7656;51.954;7.998;2022-12-29T17:42:06;3.20;;;1.93;;
15110;SDS011;7656;51.954;7.998;2022-12-29T17:46:30;3.23;;;1.00;;
15110;SDS011;7656;51.954;7.998;2022-12-29T17:50:51;5.17;;;1.57;;
15110;SDS011;7656;51.954;7.998;2022-12-29T17:59:23;5.23;;;1.80;;
15110;SDS011;7656;51.954;7.998;2022-12-29T18:03:44;3.87;;;1.90;;
15110;SDS011;7656;51.954;7.998;2022-12-29T18:08:08;3.97;;;1.77;;
15110;SDS011;7656;51.954;7.998;2022-12-29T18:12:38;3.33;;;1.40;;
15110;SDS011;7656;51.954;7.998;2022-12-29T18:17:07;2.57;;;1.17;;
15110;SDS011;7656;51.954;7.998;2022-12-29T18:21:32;3.83;;;1.50;;
15110;SDS011;7656;51.954;7.998;2022-12-29T18:26:00;2.20;;;1.13;;
15110;SDS011;7656;51.954;7.998;2022-12-29T18:30:30;3.77;;;1.83;;
15110;SDS011;7656;51.954;7.998;2022-12-29T18:34:51;1.23;;;0.90;;
15110;SDS011;7656;51.954;7.998;2022-12-29T18:39:12;1.57;;;1.17;;
15110;SDS011;7656;51.954;7.998;2022-12-29T18:43:33;1.17;;;1.00;;
15110;SDS011;7656;51.954;7.998;2022-12-29T18:47:54;1.03;;;0.83;;
15110;SDS011;7656;51.954;7.998;2022-12-29T18:52:15;3.07;;;1.10;;
15110;SDS011;7656;51.954;7.998;2022-12-29T18:56:36;2.47;;;1.40;;
15110;SDS011;7656;51.954;7.998;2022-12-29T19:00:57;1.20;;;1.10;;
15110;SDS011;7656;51.954;7.998;2022-12-29T19:05:23;3.33;;;1.33;;
15110;SDS011;7656;51.954;7.998;2022-12-29T19:10:00;2.63;;;1.27;;
15110;SDS011;7656;51.954;7.998;2022-12-29T19:14:21;2.73;;;0.83;;
15110;SDS011;7656;51.954;7.998;2022-12-29T19:18:42;3.00;;;1.60;;
15110;SDS011;7656;51.954;7.998;2022-12-29T19:23:05;2.73;;;1.00;;
15110;SDS011;7656;51.954;7.998;2022-12-29T19:27:32;0.70;;;0.70;;
15110;SDS011;7656;51.954;7.998;2022-12-29T19:31:54;2.23;;;0.90;;
15110;SDS011;7656;51.954;7.998;2022-12-29T19:36:15;2.47;;;1.00;;
15110;SDS011;7656;51.954;7.998;2022-12-29T19:40:39;0.93;;;0.77;;
15110;SDS011;7656;51.954;7.998;2022-12-29T19:45:07;2.33;;;1.10;;
15110;SDS011;7656;51.954;7.998;2022-12-29T19:49:31;1.07;;;1.00;;
15110;SDS011;7656;51.954;7.998;2022-12-29T19:53:52;1.33;;;0.90;;
15110;SDS011;7656;51.954;7.998;2022-12-29T19:58:14;3.67;;;1.20;;
15110;SDS011;7656;51.954;7.998;2022-12-29T20:02:35;1.23;;;1.03;;
15110;SDS011;7656;51.954;7.998;2022-12-29T20:06:57;3.30;;;1.43;;
15110;SDS011;7656;51.954;7.998;2022-12-29T20:11:18;4.47;;;1.37;;
15110;SDS011;7656;51.954;7.998;2022-12-29T20:15:41;1.50;;;1.40;;
15110;SDS011;7656;51.954;7.998;2022-12-29T20:20:03;5.47;;;1.73;;
15110;SDS011;7656;51.954;7.998;2022-12-29T20:24:25;6.70;;;1.40;;
15110;SDS011;7656;51.954;7.998;2022-12-29T20:28:47;2.57;;;1.37;;
15110;SDS011;7656;51.954;7.998;2022-12-29T20:33:10;3.20;;;1.87;;
15110;SDS011;7656;51.954;7.998;2022-12-29T20:37:31;3.20;;;1.70;;
15110;SDS011;7656;51.954;7.998;2022-12-29T20:41:52;4.17;;;1.80;;
15110;SDS011;7656;51.954;7.998;2022-12-29T20:46:13;6.10;;;2.23;;
15110;SDS011;7656;51.954;7.998;2022-12-29T20:50:34;4.67;;;1.33;;
15110;SDS011;7656;51.954;7.998;2022-12-29T20:54:55;6.93;;;2.17;;
15110;SDS011;7656;51.954;7.998;2022-12-29T20:59:17;5.07;;;2.33;;
15110;SDS011;7656;51.954;7.998;2022-12-29T21:03:38;7.37;;;1.90;;
15110;SDS011;7656;51.954;7.998;2022-12-29T21:07:59;3.73;;;1.70;;
15110;SDS011;7656;51.954;7.998;2022-12-29T21:12:20;6.63;;;2.80;;
15110;SDS011;7656;51.954;7.998;2022-12-29T21:16:41;7.77;;;2.20;;
15110;SDS011;7656;51.954;7.998;2022-12-29T21:21:04;6.00;;;2.10;;
15110;SDS011;7656;51.954;7.998;2022-12-29T21:25:41;9.17;;;2.27;;
15110;SDS011;7656;51.954;7.998;2022-12-29T21:30:03;6.97;;;2.20;;
15110;SDS011;7656;51.954;7.998;2022-12-29T21:34:25;6.53;;;2.13;;
15110;SDS011;7656;51.954;7.998;2022-12-29T21:38:46;4.27;;;1.43;;
15110;SDS011;7656;51.954;7.998;2022-12-29T21:43:08;7.93;;;2.10;;
15110;SDS011;7656;51.954;7.998;2022-12-29T21:47:33;4.90;;;2.10;;
15110;SDS011;7656;51.954;7.998;2022-12-29T21:52:13;10.87;;;1.93;;
15110;SDS011;7656;51.954;7.998;2022-12-29T21:56:34;5.90;;;1.83;;
15110;SDS011;7656;51.954;7.998;2022-12-29T22:00:55;6.57;;;1.83;;
15110;SDS011;7656;51.954;7.998;2022-12-29T22:05:34;6.63;;;2.60;;
15110;SDS011;7656;51.954;7.998;2022-12-29T22:10:14;4.90;;;1.87;;
15110;SDS011;7656;51.954;7.998;2022-12-29T22:14:54;5.50;;;1.90;;
15110;SDS011;7656;51.954;7.998;2022-12-29T22:19:15;5.30;;;1.97;;
15110;SDS011;7656;51.954;7.998;2022-12-29T22:23:36;7.07;;;2.37;;
15110;SDS011;7656;51.954;7.998;2022-12-29T22:27:57;8.20;;;2.30;;
15110;SDS011;7656;51.954;7.998;2022-12-29T22:32:18;4.70;;;1.67;;
15110;SDS011;7656;51.954;7.998;2022-12-29T22:36:40;10.80;;;2.70;;
15110;SDS011;7656;51.954;7.998;2022-12-29T22:41:01;4.50;;;1.30;;
15110;SDS011;7656;51.954;7.998;2022-12-29T22:45:22;7.80;;;2.03;;
15110;SDS011;7656;51.954;7.998;2022-12-29T22:49:43;7.97;;;1.87;;
15110;SDS011;7656;51.954;7.998;2022-12-29T22:54:04;6.63;;;2.20;;
15110;SDS011;7656;51.954;7.998;2022-12-29T22:58:25;4.60;;;1.67;;
15110;SDS011;7656;51.954;7.998;2022-12-29T23:02:46;7.90;;;2.03;;
15110;SDS011;7656;51.954;7.998;2022-12-29T23:07:07;5.10;;;1.90;;
15110;SDS011;7656;51.954;7.998;2022-12-29T23:11:28;6.87;;;1.93;;
15110;SDS011;7656;51.954;7.998;2022-12-29T23:15:50;4.93;;;1.83;;
15110;SDS011;7656;51.954;7.998;2022-12-29T23:20:11;4.80;;;1.87;;
15110;SDS011;7656;51.954;7.998;2022-12-29T23:24:33;8.07;;;1.93;;
15110;SDS011;7656;51.954;7.998;2022-12-29T23:28:54;7.03;;;1.93;;
15110;SDS011;7656;51.954;7.998;2022-12-29T23:33:17;5.33;;;2.30;;
15110;SDS011;7656;51.954;7.998;2022-12-29T23:37:38;6.17;;;2.10;;
15110;SDS011;7656;51.954;7.998;2022-12-29T23:41:59;8.00;;;2.83;;
15110;SDS011;7656;51.954;7.998;2022-12-29T23:46:22;4.70;;;1.63;;
15110;SDS011;7656;51.954;7.998;2022-12-29T23:50:45;6.47;;;2.23;;
15110;SDS011;7656;51.954;7.998;2022-12-29T23:55:07;6.23;;;2.20;;
15110;SDS011;7656;51.954;7.998;2022-12-29T23:59:29;8.17;;;1.70;;
